Time;durP1;ratioP1;P1;durP2;ratioP2;P2;SDS_P1;SDS_P2;PMS_P1;PMS_P2;Temp;Humidity;BMP_temperature;BMP_pressure;BME280_temperature;BME280_humidity;BME280_pressure;Samples;Min_cycle;Max_cycle;Signal;HPM_P1;HPM_P2
2022/10/29 00:01:59;;;;;;;11.20;4.10;;;15.00;99.90;;;;;;5076459;28;20028;-78
2022/10/29 00:04:25;;;;;;;13.95;4.43;;;15.00;99.90;;;;;;5075937;28;20031;-78
2022/10/29 00:06:50;;;;;;;11.43;4.15;;;15.00;99.90;;;;;;5076121;28;20039;-78
2022/10/29 00:09:16;;;;;;;10.57;3.95;;;14.90;99.90;;;;;;5093763;28;20146;-78
2022/10/29 00:11:42;;;;;;;10.77;4.03;;;14.90;99.90;;;;;;5094505;28;20365;-78
2022/10/29 00:14:07;;;;;;;13.88;4.45;;;14.80;99.90;;;;;;5076381;28;20077;-78
2022/10/29 00:16:38;;;;;;;13.85;3.97;;;14.80;99.90;;;;;;5093700;28;20081;-78
2022/10/29 00:19:04;;;;;;;8.60;4.10;;;14.80;99.90;;;;;;5076115;28;20435;-78
2022/10/29 00:21:30;;;;;;;12.35;3.50;;;14.80;99.90;;;;;;5075534;28;20024;-78
2022/10/29 00:23:57;;;;;;;15.52;3.88;;;14.80;99.90;;;;;;5076037;28;20512;-79
2022/10/29 00:26:23;;;;;;;9.95;3.65;;;14.80;99.90;;;;;;5075342;28;20028;-78
2022/10/29 00:28:53;;;;;;;9.05;3.50;;;14.80;99.90;;;;;;5072743;28;20477;-78
2022/10/29 00:31:23;;;;;;;11.70;3.60;;;14.80;99.90;;;;;;5073231;28;20027;-78
2022/10/29 00:33:49;;;;;;;16.05;3.83;;;14.80;99.90;;;;;;5073880;28;20033;-78
2022/10/29 00:36:21;;;;;;;12.90;3.67;;;14.80;99.90;;;;;;5072156;28;20039;-76
2022/10/29 00:38:47;;;;;;;14.30;3.60;;;14.90;99.90;;;;;;5072754;28;20063;-78
2022/10/29 00:41:16;;;;;;;12.70;3.97;;;15.00;99.90;;;;;;5072280;28;20028;-76
2022/10/29 00:44:09;;;;;;;12.82;3.92;;;14.90;99.90;;;;;;5072454;28;20032;-78
2022/10/29 00:46:35;;;;;;;14.40;3.28;;;14.90;99.90;;;;;;5072741;28;20036;-78
2022/10/29 00:49:02;;;;;;;9.90;3.58;;;14.90;99.90;;;;;;5072317;28;20035;-78
2022/10/29 00:51:29;;;;;;;8.23;3.33;;;14.80;99.90;;;;;;5071672;28;20031;-78
2022/10/29 00:54:00;;;;;;;10.63;3.75;;;14.90;99.90;;;;;;5072473;28;20028;-78
2022/10/29 00:56:29;;;;;;;12.05;4.20;;;14.80;99.90;;;;;;5071499;28;20432;-78
2022/10/29 00:58:55;;;;;;;10.00;3.58;;;14.80;99.90;;;;;;5072156;28;20028;-79
2022/10/29 01:01:20;;;;;;;11.48;3.50;;;14.80;99.90;;;;;;5071467;28;20024;-78
2022/10/29 01:03:47;;;;;;;10.65;3.78;;;14.80;99.90;;;;;;5073208;28;20036;-78
2022/10/29 01:06:13;;;;;;;15.13;3.95;;;14.70;99.90;;;;;;5072071;28;20036;-78
2022/10/29 01:08:38;;;;;;;14.95;4.03;;;14.90;99.90;;;;;;5071399;28;20166;-78
2022/10/29 01:11:41;;;;;;;10.25;4.03;;;15.00;99.90;;;;;;5072006;28;20435;-79
2022/10/29 01:14:27;;;;;;;10.27;3.45;;;15.10;99.90;;;;;;5071688;28;20028;-78
2022/10/29 01:17:04;;;;;;;11.73;3.65;;;15.00;99.90;;;;;;5073100;28;20020;-78
2022/10/29 01:19:54;;;;;;;10.30;3.42;;;15.00;99.90;;;;;;5071518;28;20082;-78
2022/10/29 01:22:31;;;;;;;11.07;3.55;;;15.10;99.90;;;;;;5072203;28;20055;-77
2022/10/29 01:25:26;;;;;;;8.75;3.30;;;15.20;99.90;;;;;;5072786;28;20035;-78
2022/10/29 01:28:25;;;;;;;10.23;3.25;;;15.20;99.90;;;;;;5018332;28;20046;-79
2022/10/29 01:30:59;;;;;;;10.15;3.40;;;15.20;99.90;;;;;;5071716;28;20078;-78
2022/10/29 01:33:58;;;;;;;13.40;3.85;;;15.10;99.90;;;;;;5070968;28;20031;-78
2022/10/29 01:36:49;;;;;;;12.55;3.08;;;14.90;99.90;;;;;;5070759;28;20025;-78
2022/10/29 01:39:36;;;;;;;12.50;3.50;;;14.80;99.90;;;;;;5071658;28;20033;-78
2022/10/29 01:42:13;;;;;;;7.43;3.55;;;14.70;99.90;;;;;;5071624;28;20027;-78
2022/10/29 01:44:57;;;;;;;15.63;3.88;;;14.70;99.90;;;;;;5072003;28;20035;-78
2022/10/29 01:47:27;;;;;;;14.25;3.50;;;14.70;99.90;;;;;;5070744;28;20032;-77
2022/10/29 01:50:02;;;;;;;9.52;3.30;;;14.80;99.90;;;;;;5071516;28;20039;-79
2022/10/29 01:52:31;;;;;;;12.80;3.35;;;14.90;99.90;;;;;;5070982;28;20028;-79
2022/10/29 01:54:57;;;;;;;8.85;3.20;;;14.70;99.90;;;;;;5071422;28;20020;-78
2022/10/29 01:57:33;;;;;;;10.45;3.35;;;14.70;99.90;;;;;;5070406;28;20041;-77
2022/10/29 02:00:17;;;;;;;11.30;3.22;;;14.60;99.90;;;;;;5071530;28;20426;-78
2022/10/29 02:03:12;;;;;;;12.93;3.42;;;14.50;99.90;;;;;;5071137;28;20096;-78
2022/10/29 02:05:51;;;;;;;9.07;3.28;;;14.40;99.90;;;;;;5070657;28;20035;-79
2022/10/29 02:09:03;;;;;;;10.18;3.42;;;14.40;99.90;;;;;;5071732;28;20036;-80
2022/10/29 02:11:57;;;;;;;9.82;3.40;;;14.50;99.90;;;;;;5066229;28;20051;-78
2022/10/29 02:14:31;;;;;;;12.48;3.10;;;14.40;99.90;;;;;;5088044;28;20485;-78
2022/10/29 02:16:57;;;;;;;8.77;3.38;;;14.40;99.90;;;;;;5093187;28;20035;-78
2022/10/29 02:19:29;;;;;;;10.15;2.95;;;14.30;99.90;;;;;;5091898;28;20373;-78
2022/10/29 02:21:54;;;;;;;7.05;3.63;;;14.40;99.90;;;;;;5091721;28;20443;-79
2022/10/29 02:24:20;;;;;;;10.15;3.83;;;14.30;99.90;;;;;;5092079;28;20142;-76
2022/10/29 02:26:45;;;;;;;11.32;2.83;;;14.30;99.90;;;;;;5091939;28;20358;-78
2022/10/29 02:29:11;;;;;;;8.30;3.67;;;14.30;99.90;;;;;;5091717;28;20222;-78
2022/10/29 02:31:36;;;;;;;11.43;3.20;;;14.20;99.90;;;;;;5093356;28;20077;-79
2022/10/29 02:34:02;;;;;;;8.35;3.40;;;14.20;99.90;;;;;;5096505;28;20461;-78
2022/10/29 02:36:28;;;;;;;12.63;3.42;;;14.20;99.90;;;;;;5094372;28;20028;-79
2022/10/29 02:38:53;;;;;;;10.80;3.33;;;14.10;99.90;;;;;;5095053;28;20384;-78
2022/10/29 02:41:19;;;;;;;9.68;3.42;;;14.00;99.90;;;;;;5083551;28;20040;-77
2022/10/29 02:43:44;;;;;;;9.82;3.35;;;14.00;99.90;;;;;;5076517;28;20029;-77
2022/10/29 02:46:16;;;;;;;7.38;3.05;;;13.90;99.90;;;;;;5089647;28;20107;-78
2022/10/29 02:48:42;;;;;;;8.23;3.20;;;13.80;99.90;;;;;;5072990;28;20024;-78
2022/10/29 02:51:08;;;;;;;7.88;2.53;;;13.80;99.90;;;;;;5073740;28;20032;-78
2022/10/29 02:53:33;;;;;;;10.77;3.03;;;13.80;99.90;;;;;;5076951;28;20066;-78
2022/10/29 02:55:59;;;;;;;7.30;2.53;;;13.80;99.90;;;;;;5093748;28;20020;-78
2022/10/29 02:58:25;;;;;;;10.35;3.35;;;13.80;99.90;;;;;;5093720;28;20521;-77
2022/10/29 03:00:51;;;;;;;9.32;3.30;;;13.80;99.90;;;;;;5084888;28;20025;-77
2022/10/29 03:03:17;;;;;;;8.82;3.15;;;13.80;99.90;;;;;;5072925;28;20060;-78
2022/10/29 03:05:43;;;;;;;6.80;3.22;;;13.70;99.90;;;;;;5091040;28;20043;-78
2022/10/29 03:08:08;;;;;;;8.98;2.78;;;13.70;99.90;;;;;;5094026;28;20036;-78
2022/10/29 03:10:34;;;;;;;7.30;3.08;;;13.80;99.90;;;;;;5090564;28;20024;-78
2022/10/29 03:13:00;;;;;;;8.50;3.00;;;13.70;99.90;;;;;;5084617;28;20067;-78
2022/10/29 03:15:26;;;;;;;14.45;3.65;;;13.70;99.90;;;;;;5091184;28;20036;-78
2022/10/29 03:17:51;;;;;;;10.95;3.22;;;13.70;99.90;;;;;;5077305;28;20496;-78
2022/10/29 03:20:17;;;;;;;7.88;3.42;;;13.60;99.90;;;;;;5093809;28;20512;-78
2022/10/29 03:22:43;;;;;;;13.40;3.45;;;13.60;99.90;;;;;;5085934;28;20042;-78
2022/10/29 03:25:09;;;;;;;8.70;3.20;;;13.50;99.90;;;;;;5085075;28;20544;-78
2022/10/29 03:27:44;;;;;;;6.47;2.92;;;13.50;99.90;;;;;;5093152;28;20024;-78
2022/10/29 03:30:15;;;;;;;8.60;3.05;;;13.40;99.90;;;;;;5077012;28;20048;-78
2022/10/29 03:32:42;;;;;;;10.95;3.00;;;13.40;99.90;;;;;;5093222;28;20710;-78
2022/10/29 03:35:08;;;;;;;10.35;3.15;;;13.40;99.90;;;;;;5081412;28;20036;-78
2022/10/29 03:37:34;;;;;;;10.25;3.03;;;13.40;99.90;;;;;;5087937;28;20081;-78
2022/10/29 03:39:59;;;;;;;8.18;3.30;;;13.40;99.90;;;;;;5074310;28;20032;-78
2022/10/29 03:42:25;;;;;;;9.25;3.22;;;13.40;99.90;;;;;;5072721;28;20035;-77
2022/10/29 03:44:50;;;;;;;9.95;3.13;;;13.40;99.90;;;;;;5094084;28;20032;-77
2022/10/29 03:47:16;;;;;;;9.65;3.28;;;13.40;99.90;;;;;;5080079;28;20032;-78
2022/10/29 03:49:42;;;;;;;10.05;3.50;;;13.40;99.90;;;;;;5073495;28;20027;-78
2022/10/29 03:52:07;;;;;;;6.72;3.05;;;13.40;99.90;;;;;;5089959;28;20021;-79
2022/10/29 03:54:33;;;;;;;6.63;3.25;;;13.40;99.90;;;;;;5079379;28;20150;-78
2022/10/29 03:56:58;;;;;;;5.75;2.53;;;13.50;99.90;;;;;;5083950;28;20393;-78
2022/10/29 03:59:24;;;;;;;7.68;2.53;;;13.40;99.90;;;;;;5086249;28;20024;-76
2022/10/29 04:01:50;;;;;;;11.82;2.88;;;13.40;99.90;;;;;;5075584;28;20078;-79
2022/10/29 04:04:15;;;;;;;9.65;3.00;;;13.40;99.90;;;;;;5078837;28;20035;-79
2022/10/29 04:06:41;;;;;;;7.15;2.92;;;13.40;99.90;;;;;;5084399;28;20791;-79
2022/10/29 04:09:06;;;;;;;13.85;3.88;;;13.30;99.90;;;;;;5085869;28;20034;-78
2022/10/29 04:11:32;;;;;;;6.95;3.40;;;13.30;99.90;;;;;;5087836;28;20532;-79
2022/10/29 04:13:58;;;;;;;7.63;3.00;;;13.30;99.90;;;;;;5093021;28;20473;-79
2022/10/29 04:16:23;;;;;;;13.90;3.58;;;13.30;99.90;;;;;;5086521;28;20029;-76
2022/10/29 04:18:49;;;;;;;10.18;3.03;;;13.30;99.90;;;;;;5081473;28;20528;-79
2022/10/29 04:21:16;;;;;;;9.30;2.75;;;13.20;99.90;;;;;;5080426;28;20024;-79
2022/10/29 04:23:41;;;;;;;10.27;3.10;;;13.20;99.90;;;;;;5088596;28;20031;-80
2022/10/29 04:26:07;;;;;;;7.00;3.00;;;13.20;99.90;;;;;;5078348;28;20031;-78
2022/10/29 04:28:32;;;;;;;10.98;3.38;;;13.20;99.90;;;;;;5083073;28;20059;-78
2022/10/29 04:31:03;;;;;;;11.68;2.97;;;13.10;99.90;;;;;;5082823;28;20023;-79
2022/10/29 04:33:28;;;;;;;10.35;3.45;;;13.10;99.90;;;;;;5092061;28;20488;-78
2022/10/29 04:35:54;;;;;;;8.25;3.35;;;13.10;99.90;;;;;;5086089;28;20020;-77
2022/10/29 04:38:20;;;;;;;9.43;2.85;;;13.10;99.90;;;;;;5090213;28;20470;-78
2022/10/29 04:40:46;;;;;;;7.90;2.92;;;13.20;99.90;;;;;;5085365;28;20166;-77
2022/10/29 04:43:11;;;;;;;10.13;3.00;;;13.10;99.90;;;;;;5092404;28;20479;-78
2022/10/29 04:45:37;;;;;;;7.32;2.80;;;13.00;99.90;;;;;;5087310;28;20032;-80
2022/10/29 04:48:04;;;;;;;9.38;2.85;;;13.10;99.90;;;;;;5088959;28;20039;-79
2022/10/29 04:50:31;;;;;;;8.93;2.78;;;13.00;99.90;;;;;;5087523;28;20398;-76
2022/10/29 04:53:00;;;;;;;8.73;3.17;;;12.90;99.90;;;;;;5092546;28;20028;-77
2022/10/29 04:55:27;;;;;;;7.97;2.95;;;12.80;99.90;;;;;;5090796;28;20032;-75
2022/10/29 04:57:52;;;;;;;8.15;2.85;;;12.90;99.90;;;;;;5091811;28;20024;-78
2022/10/29 05:00:18;;;;;;;7.60;2.55;;;12.90;99.90;;;;;;5086232;28;20028;-78
2022/10/29 05:02:51;;;;;;;8.60;3.08;;;12.80;99.90;;;;;;5081880;28;20041;-77
2022/10/29 05:05:18;;;;;;;8.82;3.20;;;12.90;99.90;;;;;;5084629;28;20028;-77
2022/10/29 05:07:44;;;;;;;8.18;3.30;;;12.80;99.90;;;;;;5091917;28;20605;-76
2022/10/29 05:10:10;;;;;;;8.23;2.70;;;12.90;99.90;;;;;;5074867;28;20053;-77
2022/10/29 05:12:36;;;;;;;6.30;2.50;;;12.80;99.90;;;;;;5090620;28;20036;-77
2022/10/29 05:15:02;;;;;;;7.47;2.70;;;12.70;99.90;;;;;;5091670;28;20385;-77
2022/10/29 05:17:27;;;;;;;7.28;2.83;;;12.70;99.90;;;;;;5075897;28;20032;-77
2022/10/29 05:19:53;;;;;;;8.63;2.75;;;12.70;99.90;;;;;;5087881;28;20024;-77
2022/10/29 05:22:19;;;;;;;5.72;2.70;;;12.80;99.90;;;;;;5076331;28;20024;-77
2022/10/29 05:24:44;;;;;;;10.18;3.00;;;12.80;99.90;;;;;;5081806;28;20106;-77
2022/10/29 05:27:10;;;;;;;10.63;2.92;;;12.80;99.90;;;;;;5072110;28;20453;-77
2022/10/29 05:29:35;;;;;;;12.77;3.05;;;12.80;99.90;;;;;;5099733;28;20165;-77
2022/10/29 05:32:01;;;;;;;9.57;2.72;;;12.70;99.90;;;;;;5075347;28;20425;-77
2022/10/29 05:34:27;;;;;;;9.10;2.53;;;12.70;99.90;;;;;;5073642;28;20024;-77
2022/10/29 05:36:52;;;;;;;6.30;2.58;;;12.70;99.90;;;;;;5101862;28;20118;-77
2022/10/29 05:39:18;;;;;;;7.43;2.58;;;12.70;99.90;;;;;;5080979;28;20107;-77
2022/10/29 05:41:45;;;;;;;5.47;2.70;;;12.70;99.90;;;;;;5089768;28;20399;-77
2022/10/29 05:44:11;;;;;;;7.25;2.50;;;12.70;99.90;;;;;;5092799;28;20433;-78
2022/10/29 05:46:38;;;;;;;13.65;3.20;;;12.70;99.90;;;;;;5073014;28;20114;-78
2022/10/29 05:49:04;;;;;;;14.20;3.20;;;12.70;99.90;;;;;;5085202;28;20031;-78
2022/10/29 05:51:29;;;;;;;10.55;2.67;;;12.70;99.90;;;;;;5094072;28;20464;-77
2022/10/29 05:53:55;;;;;;;9.40;2.70;;;12.70;99.90;;;;;;5092696;28;20027;-78
2022/10/29 05:56:20;;;;;;;10.73;3.25;;;12.60;99.90;;;;;;5097756;28;20023;-77
2022/10/29 05:58:50;;;;;;;10.48;2.75;;;12.60;99.90;;;;;;5084226;28;20107;-78
2022/10/29 06:01:18;;;;;;;6.68;2.72;;;12.50;99.90;;;;;;5074442;28;20051;-78
2022/10/29 06:03:44;;;;;;;5.47;2.35;;;12.50;99.90;;;;;;5108113;28;20020;-77
2022/10/29 06:06:09;;;;;;;7.25;2.70;;;12.50;99.90;;;;;;5098273;28;20027;-77
2022/10/29 06:08:35;;;;;;;6.32;2.38;;;12.40;99.90;;;;;;5090131;28;20465;-77
2022/10/29 06:11:01;;;;;;;11.25;2.90;;;12.40;99.90;;;;;;5100579;28;20377;-77
2022/10/29 06:13:27;;;;;;;8.18;2.75;;;12.40;99.90;;;;;;5077863;28;20028;-75
2022/10/29 06:15:57;;;;;;;9.68;2.60;;;12.40;99.90;;;;;;5114527;28;20035;-77
2022/10/29 06:18:23;;;;;;;10.32;2.60;;;12.40;99.90;;;;;;5110857;28;20035;-78
2022/10/29 06:20:48;;;;;;;7.63;2.70;;;12.40;99.90;;;;;;5077535;28;20385;-78
2022/10/29 06:23:14;;;;;;;8.55;2.95;;;12.40;99.90;;;;;;5108861;28;20102;-78
2022/10/29 06:25:39;;;;;;;7.13;2.58;;;12.50;99.90;;;;;;5081068;28;20028;-78
2022/10/29 06:28:08;;;;;;;6.65;2.67;;;12.50;99.90;;;;;;5112466;28;20097;-77
2022/10/29 06:30:35;;;;;;;8.10;2.70;;;12.50;99.90;;;;;;5095142;28;20119;-78
2022/10/29 06:33:02;;;;;;;10.82;2.70;;;12.50;99.90;;;;;;5077752;28;20114;-78
2022/10/29 06:35:28;;;;;;;9.93;3.00;;;12.50;99.90;;;;;;5076924;28;20032;-77
2022/10/29 06:37:53;;;;;;;10.38;2.90;;;12.60;99.90;;;;;;5094355;28;20081;-77
2022/10/29 06:40:19;;;;;;;5.93;2.40;;;12.60;99.90;;;;;;5081905;28;20026;-77
2022/10/29 06:42:45;;;;;;;10.63;2.75;;;12.60;99.90;;;;;;5085331;28;20104;-78
2022/10/29 06:45:11;;;;;;;7.28;2.70;;;12.60;99.90;;;;;;5115732;28;20089;-78
2022/10/29 06:47:44;;;;;;;9.23;3.28;;;12.60;99.90;;;;;;5114977;28;20049;-78
2022/10/29 06:50:12;;;;;;;7.78;2.67;;;12.60;99.90;;;;;;5099058;28;20015;-77
2022/10/29 06:52:38;;;;;;;9.13;3.25;;;12.60;99.90;;;;;;5089208;28;20122;-77
2022/10/29 06:55:05;;;;;;;11.30;2.78;;;12.70;99.90;;;;;;5106872;28;20099;-77
2022/10/29 06:57:31;;;;;;;10.70;3.08;;;12.70;99.90;;;;;;5081868;28;20032;-77
2022/10/29 06:59:59;;;;;;;9.05;2.90;;;12.80;99.90;;;;;;5093627;28;20023;-78
2022/10/29 07:02:25;;;;;;;14.82;3.85;;;12.80;99.90;;;;;;5082756;28;20020;-75
2022/10/29 07:04:50;;;;;;;9.57;2.83;;;12.80;99.90;;;;;;5105933;28;20129;-78
2022/10/29 07:07:16;;;;;;;8.57;2.78;;;12.90;99.90;;;;;;5090375;28;20160;-78
2022/10/29 07:09:42;;;;;;;8.40;2.90;;;12.90;99.90;;;;;;5096336;28;20031;-78
2022/10/29 07:12:08;;;;;;;6.47;2.75;;;13.00;99.90;;;;;;5107250;28;20024;-78
2022/10/29 07:14:34;;;;;;;9.88;2.55;;;13.10;99.90;;;;;;5076317;28;20031;-77
2022/10/29 07:16:59;;;;;;;6.63;2.95;;;13.10;99.90;;;;;;5086170;28;20034;-77
2022/10/29 07:19:25;;;;;;;10.35;3.15;;;13.20;99.90;;;;;;5114612;28;20073;-77
2022/10/29 07:21:50;;;;;;;8.48;2.70;;;13.20;99.90;;;;;;5079864;28;20028;-78
2022/10/29 07:24:16;;;;;;;10.23;3.17;;;13.30;99.90;;;;;;5092127;28;20023;-78
2022/10/29 07:26:42;;;;;;;9.10;3.42;;;13.30;99.90;;;;;;5083928;28;20058;-78
2022/10/29 07:29:08;;;;;;;6.22;3.13;;;13.30;99.90;;;;;;5090016;28;20048;-77
2022/10/29 07:31:34;;;;;;;11.15;3.45;;;13.40;99.90;;;;;;5096250;28;20034;-78
2022/10/29 07:34:00;;;;;;;13.55;4.47;;;13.40;99.90;;;;;;5095807;28;20404;-78
2022/10/29 07:36:25;;;;;;;12.63;4.13;;;13.40;99.90;;;;;;5108383;28;20060;-75
2022/10/29 07:38:51;;;;;;;15.93;5.55;;;13.50;99.90;;;;;;5096345;28;20039;-78
2022/10/29 07:41:16;;;;;;;17.67;6.15;;;13.60;99.90;;;;;;5096481;28;20033;-78
2022/10/29 07:43:42;;;;;;;12.30;4.43;;;13.60;99.90;;;;;;5095264;28;20023;-77
2022/10/29 07:46:08;;;;;;;14.82;3.58;;;13.50;99.90;;;;;;5076524;28;20085;-78
2022/10/29 07:48:33;;;;;;;14.07;2.95;;;13.60;99.90;;;;;;5095630;28;20023;-78
2022/10/29 07:51:00;;;;;;;12.57;2.83;;;13.60;99.90;;;;;;5093242;28;20028;-77
2022/10/29 07:53:26;;;;;;;13.70;3.25;;;13.60;99.90;;;;;;5096072;28;20028;-76
2022/10/29 07:55:55;;;;;;;6.47;3.13;;;13.60;99.90;;;;;;5094705;28;20383;-78
2022/10/29 07:58:22;;;;;;;9.77;3.08;;;13.70;99.90;;;;;;5081177;28;20115;-77
2022/10/29 08:00:48;;;;;;;9.48;3.08;;;13.70;99.90;;;;;;5095481;28;20034;-78
2022/10/29 08:03:13;;;;;;;10.73;3.17;;;13.70;99.90;;;;;;5096390;28;20036;-78
2022/10/29 08:05:39;;;;;;;9.02;3.13;;;13.80;99.90;;;;;;5092250;28;20119;-78
2022/10/29 08:08:05;;;;;;;10.50;3.33;;;13.80;99.90;;;;;;5110744;28;20029;-78
2022/10/29 08:10:33;;;;;;;6.05;2.60;;;13.80;99.90;;;;;;5094738;28;20072;-77
2022/10/29 08:13:02;;;;;;;14.52;2.80;;;13.80;99.90;;;;;;5096017;28;20028;-78
2022/10/29 08:15:30;;;;;;;11.27;2.85;;;13.80;99.90;;;;;;5091957;28;20500;-76
2022/10/29 08:17:56;;;;;;;11.93;3.42;;;13.90;99.90;;;;;;5094070;28;20034;-78
2022/10/29 08:20:25;;;;;;;9.85;2.72;;;13.90;99.90;;;;;;5095750;28;20045;-78
2022/10/29 08:22:51;;;;;;;7.63;2.95;;;14.00;99.90;;;;;;5092043;28;20036;-77
2022/10/29 08:25:17;;;;;;;9.98;2.92;;;14.00;99.90;;;;;;5106916;28;20354;-77
2022/10/29 08:27:43;;;;;;;9.93;3.55;;;14.10;99.90;;;;;;5091302;28;20073;-78
2022/10/29 08:30:12;;;;;;;12.43;3.40;;;14.10;99.90;;;;;;5087503;28;20049;-78
2022/10/29 08:32:45;;;;;;;9.30;2.75;;;14.20;99.90;;;;;;5078668;28;20085;-78
2022/10/29 08:35:11;;;;;;;11.13;3.20;;;14.20;99.90;;;;;;5081146;28;20032;-78
2022/10/29 08:37:44;;;;;;;11.88;3.05;;;14.30;99.90;;;;;;5087216;28;20036;-78
2022/10/29 08:40:24;;;;;;;11.35;3.30;;;14.30;99.90;;;;;;5075287;28;20031;-78
2022/10/29 08:43:27;;;;;;;7.22;2.70;;;14.50;99.90;;;;;;5082250;28;20028;-77
2022/10/29 08:45:54;;;;;;;11.32;3.10;;;14.50;99.90;;;;;;5074977;28;20501;-78
2022/10/29 08:48:32;;;;;;;10.73;3.22;;;14.60;99.90;;;;;;5086579;28;20024;-77
2022/10/29 08:51:19;;;;;;;8.93;3.00;;;14.80;99.90;;;;;;5082057;28;20385;-78
2022/10/29 08:53:50;;;;;;;10.10;2.97;;;14.80;99.90;;;;;;5075697;28;20082;-77
2022/10/29 08:56:24;;;;;;;13.85;2.88;;;14.80;99.90;;;;;;5088460;28;20033;-78
2022/10/29 08:59:00;;;;;;;13.15;3.60;;;14.90;99.90;;;;;;5080186;28;20093;-78
2022/10/29 09:01:26;;;;;;;11.27;3.20;;;14.90;99.90;;;;;;5076937;28;20028;-75
2022/10/29 09:03:53;;;;;;;13.13;2.95;;;15.00;99.90;;;;;;5087867;28;20032;-78
2022/10/29 09:06:38;;;;;;;13.65;3.10;;;15.10;99.90;;;;;;5076471;28;20032;-78
2022/10/29 09:09:37;;;;;;;9.10;2.90;;;15.20;99.90;;;;;;5091969;28;20036;-77
2022/10/29 09:12:29;;;;;;;8.45;2.92;;;15.30;99.90;;;;;;5071246;28;20040;-78
2022/10/29 09:15:17;;;;;;;9.23;3.42;;;15.40;99.90;;;;;;5091929;28;20077;-77
2022/10/29 09:18:07;;;;;;;9.98;3.30;;;15.50;99.90;;;;;;5074007;28;20039;-77
2022/10/29 09:20:56;;;;;;;13.98;3.72;;;15.50;99.90;;;;;;5083540;28;20055;-77
2022/10/29 09:23:28;;;;;;;7.80;3.25;;;15.50;99.90;;;;;;5086408;28;20035;-78
2022/10/29 09:26:08;;;;;;;8.52;3.42;;;15.60;99.90;;;;;;5074602;28;20035;-78
2022/10/29 09:28:39;;;;;;;17.50;6.07;;;15.60;99.90;;;;;;5087370;28;20048;-77
2022/10/29 09:31:13;;;;;;;18.33;6.32;;;15.60;99.90;;;;;;5090820;28;20127;-77
2022/10/29 09:33:39;;;;;;;21.58;8.70;;;15.60;99.90;;;;;;5090832;28;20036;-78
2022/10/29 09:36:18;;;;;;;16.05;6.65;;;15.60;99.90;;;;;;5090880;28;20028;-77
2022/10/29 09:39:03;;;;;;;17.90;5.78;;;15.70;99.90;;;;;;5092149;28;20143;-77
2022/10/29 09:41:31;;;;;;;13.60;5.18;;;15.70;99.90;;;;;;5089622;28;20039;-77
2022/10/29 09:44:01;;;;;;;17.98;4.63;;;15.80;99.90;;;;;;5091342;28;20098;-77
2022/10/29 09:46:54;;;;;;;10.65;4.65;;;15.90;99.90;;;;;;5090608;28;20457;-76
2022/10/29 09:49:29;;;;;;;13.38;4.57;;;16.00;99.90;;;;;;5091298;28;20134;-77
2022/10/29 09:52:04;;;;;;;14.13;4.60;;;16.10;99.90;;;;;;5086178;28;20029;-78
2022/10/29 09:54:31;;;;;;;11.65;3.85;;;16.10;99.90;;;;;;5090784;28;20051;-77
2022/10/29 09:57:00;;;;;;;14.38;4.60;;;16.20;99.90;;;;;;5090969;28;20028;-78
2022/10/29 09:59:33;;;;;;;9.82;3.80;;;16.20;99.90;;;;;;5090617;28;20034;-77
2022/10/29 10:01:59;;;;;;;13.75;5.35;;;16.20;99.90;;;;;;5091006;28;20024;-78
2022/10/29 10:04:39;;;;;;;11.43;4.40;;;16.30;99.90;;;;;;5090458;28;20077;-76
2022/10/29 10:07:16;;;;;;;10.30;3.97;;;16.30;99.90;;;;;;5091147;28;20028;-78
2022/10/29 10:09:56;;;;;;;10.77;4.53;;;16.40;99.90;;;;;;5091632;28;20028;-77
2022/10/29 10:12:44;;;;;;;16.20;4.82;;;16.40;99.90;;;;;;5088308;28;20111;-77
2022/10/29 10:15:15;;;;;;;10.48;4.00;;;16.40;99.90;;;;;;5092545;28;20032;-77
2022/10/29 10:18:01;;;;;;;12.27;4.18;;;16.50;99.90;;;;;;5090479;28;20475;-78
2022/10/29 10:20:30;;;;;;;16.00;5.10;;;16.60;99.90;;;;;;5076222;28;20039;-77
2022/10/29 10:22:56;;;;;;;11.75;4.40;;;16.70;99.90;;;;;;5090900;28;20028;-78
2022/10/29 10:25:32;;;;;;;10.93;4.38;;;16.70;99.90;;;;;;5091066;28;20035;-77
2022/10/29 10:28:01;;;;;;;12.35;4.10;;;16.70;99.90;;;;;;5090797;28;20066;-77
2022/10/29 10:30:27;;;;;;;13.10;4.40;;;16.70;99.90;;;;;;5086937;28;20040;-77
2022/10/29 10:32:52;;;;;;;8.98;3.70;;;17.00;99.90;;;;;;5083624;28;20510;-77
2022/10/29 10:35:29;;;;;;;14.55;3.83;;;17.10;99.90;;;;;;5080860;28;20077;-78
2022/10/29 10:37:56;;;;;;;13.00;4.30;;;17.40;99.90;;;;;;5090622;28;20035;-77
2022/10/29 10:40:23;;;;;;;8.32;4.05;;;17.40;99.90;;;;;;5079103;28;20031;-78
2022/10/29 10:42:52;;;;;;;17.67;4.38;;;17.40;99.90;;;;;;5093853;28;20035;-78
2022/10/29 10:45:35;;;;;;;7.63;3.45;;;17.40;99.90;;;;;;5080902;28;20482;-77
2022/10/29 10:48:01;;;;;;;13.60;4.15;;;17.40;99.90;;;;;;5090596;28;20034;-78
2022/10/29 10:50:29;;;;;;;7.95;3.25;;;17.50;99.90;;;;;;5078836;28;20395;-76
2022/10/29 10:52:57;;;;;;;10.18;3.50;;;17.60;99.90;;;;;;5086646;28;20036;-78
2022/10/29 10:55:26;;;;;;;13.32;3.60;;;17.70;99.90;;;;;;5091251;28;20538;-78
2022/10/29 10:58:02;;;;;;;8.85;3.50;;;17.80;99.90;;;;;;5080194;28;20032;-78
2022/10/29 11:00:36;;;;;;;9.30;2.90;;;17.70;99.90;;;;;;5090564;28;20035;-75
2022/10/29 11:03:07;;;;;;;10.55;3.10;;;17.80;99.90;;;;;;5106134;28;20032;-78
2022/10/29 11:05:37;;;;;;;12.02;3.25;;;17.80;99.90;;;;;;5081221;28;20032;-77
2022/10/29 11:08:10;;;;;;;9.30;3.40;;;17.90;99.90;;;;;;5093574;28;20047;-77
2022/10/29 11:10:44;;;;;;;8.85;3.10;;;17.90;99.90;;;;;;5101282;28;20035;-78
2022/10/29 11:13:14;;;;;;;11.45;3.33;;;18.00;99.90;;;;;;5115419;28;20038;-78
2022/10/29 11:15:43;;;;;;;9.60;3.10;;;18.30;99.90;;;;;;5098632;28;20036;-78
2022/10/29 11:18:23;;;;;;;14.25;3.45;;;18.20;99.90;;;;;;5080603;28;20028;-77
2022/10/29 11:21:06;;;;;;;9.20;2.97;;;18.20;99.90;;;;;;5106252;28;20032;-78
2022/10/29 11:23:50;;;;;;;7.57;3.03;;;18.40;99.90;;;;;;5091127;28;20081;-78
2022/10/29 11:26:39;;;;;;;10.90;3.35;;;18.50;99.90;;;;;;5099578;28;20063;-77
2022/10/29 11:29:17;;;;;;;7.47;3.22;;;18.70;99.90;;;;;;5114874;28;20047;-78
2022/10/29 11:32:24;;;;;;;9.65;3.20;;;18.80;99.90;;;;;;5079533;28;20480;-77
2022/10/29 11:35:02;;;;;;;13.52;3.30;;;18.80;99.90;;;;;;5069650;28;20032;-78
2022/10/29 11:37:43;;;;;;;12.18;2.83;;;18.80;99.90;;;;;;5087623;28;20036;-77
2022/10/29 11:40:43;;;;;;;13.02;3.50;;;18.70;99.90;;;;;;5080184;28;20110;-78
2022/10/29 11:43:11;;;;;;;10.05;3.63;;;18.80;99.90;;;;;;5088408;28;20073;-78
2022/10/29 11:45:53;;;;;;;11.30;3.60;;;18.80;99.90;;;;;;5080326;28;20024;-78
2022/10/29 11:48:51;;;;;;;7.35;2.70;;;19.10;99.90;;;;;;5081139;28;20028;-77
2022/10/29 11:51:43;;;;;;;7.43;2.83;;;19.30;99.90;;;;;;5074105;28;20036;-78
2022/10/29 11:54:22;;;;;;;11.65;2.60;;;19.50;99.90;;;;;;5079861;28;20030;-78
2022/10/29 11:56:59;;;;;;;8.48;2.78;;;19.90;99.90;;;;;;5086764;28;20039;-78
2022/10/29 12:00:04;;;;;;;13.45;3.25;;;20.00;99.90;;;;;;5089945;28;20530;-75
2022/10/29 12:02:51;;;;;;;12.25;3.10;;;20.30;99.90;;;;;;5081916;28;20115;-77
2022/10/29 12:05:24;;;;;;;10.02;2.63;;;20.60;99.90;;;;;;5100890;28;20517;-76
2022/10/29 12:08:12;;;;;;;7.07;2.58;;;20.80;99.90;;;;;;5092099;28;20055;-77
2022/10/29 12:10:52;;;;;;;11.57;3.40;;;21.00;99.90;;;;;;5082508;28;20031;-78
2022/10/29 12:13:33;;;;;;;14.85;2.97;;;21.20;99.90;;;;;;5096090;28;20066;-78
2022/10/29 12:16:27;;;;;;;8.45;2.70;;;21.20;99.90;;;;;;5079318;28;20024;-78
2022/10/29 12:19:22;;;;;;;9.90;2.70;;;21.40;99.90;;;;;;5086475;28;20032;-78
2022/10/29 12:21:56;;;;;;;10.10;2.60;;;21.40;99.90;;;;;;5092158;28;20042;-78
2022/10/29 12:24:24;;;;;;;13.77;2.50;;;21.40;99.90;;;;;;5080978;28;20061;-78
2022/10/29 12:27:34;;;;;;;8.85;2.55;;;21.50;99.90;;;;;;5086425;28;20529;-77
2022/10/29 12:30:08;;;;;;;11.13;3.00;;;21.80;99.90;;;;;;5080928;28;20537;-78
2022/10/29 12:32:45;;;;;;;15.10;3.40;;;21.90;99.90;;;;;;5082323;28;20406;-78
2022/10/29 12:35:20;;;;;;;10.10;2.70;;;22.10;99.90;;;;;;5083316;28;20093;-78
2022/10/29 12:38:19;;;;;;;9.05;3.03;;;22.40;99.90;;;;;;5091818;28;20027;-77
2022/10/29 12:40:49;;;;;;;10.40;2.45;;;22.60;99.90;;;;;;5072725;28;20743;-78
2022/10/29 12:43:27;;;;;;;7.50;2.55;;;22.70;99.90;;;;;;5088314;28;20459;-78
2022/10/29 12:46:02;;;;;;;11.07;2.35;;;22.90;99.90;;;;;;5112484;28;20034;-78
2022/10/29 12:48:51;;;;;;;11.18;2.78;;;23.20;99.90;;;;;;5080672;28;20024;-77
2022/10/29 12:51:33;;;;;;;6.90;2.40;;;23.40;99.90;;;;;;5082560;28;20024;-78
2022/10/29 12:54:25;;;;;;;6.85;2.72;;;23.60;99.90;;;;;;5092119;28;20035;-77
2022/10/29 12:56:51;;;;;;;7.03;2.63;;;23.90;99.90;;;;;;5084738;28;20361;-78
2022/10/29 12:59:22;;;;;;;11.90;2.60;;;24.00;99.90;;;;;;5082180;28;20035;-78
2022/10/29 13:01:49;;;;;;;11.30;2.72;;;23.90;99.90;;;;;;5109328;28;20090;-78
2022/10/29 13:04:25;;;;;;;8.68;3.13;;;24.00;99.90;;;;;;5082738;28;20381;-77